Chesterfield, Idaho
Current Conditions -  °F | °C
As of 6:53 PM on Friday 19 Dec 2014 (Local Time) from KPIH Reporting Station
Light Rain Light Rain  
Wind Chill: -2°   Ceiling: 1900
Heat Index:   Visibility: 10mi
Dew Point:   Wind: 10mph
Humidity: 89%   Direction: 200°SSW
Pressure: 30.09"   Gusts: NA
Location:  42.811°N, 111.938°W
Report Text: KPIH 200153Z 20009KT 10SM -RA OVC019 02/01 A3009 RMK AO2 SLP199 P0001 T00220006
Loading
Personal Weather Stations






























Interactive Weather Map New forecast layout! Learn more

10-Day Weather Forecast

Advertisements
Track Severe Weather on mobile